^^
Station Historical Data
Daily Summary for October 24, 2017 Units:  English    Metric   Both
« Previous Day
Next Day »
Daily Weekly Monthly Yearly Custom
  High: Low: Average:
Temperature: 74.1 °F 65.3 °F 68.7 °F
Dew Point: 67.6 °F 64.4 °F 65.9 °F
Humidity: 97% 80% 91%
Wind Speed: 12.0mph 0.0mph 4.9mph
Wind Gust: 30.0mph - -
Wind- - SSW
Pressure: 29.99 in 29.75 in -
Precipitation: 0.00 in    
Historical Graphs
 
 
Tabular Data for October 24, 2017
Time Temperature Dew Point Pressure Wind Wind Speed Wind Gust Humidity Rainfall Rate (Hourly) Conditions
00:19 68.8 °F 65.1 °F 29.98 in SSW 5.0 mph 13.0 mph 88% 0.00 in BKN
00:29 68.7 °F 65.3 °F 29.98 in WSW 2.0 mph 9.0 mph 89% 0.00 in BKN
00:39 68.6 °F 65.2 °F 29.98 in SW 5.0 mph 13.0 mph 89% 0.00 in BKN
00:49 68.6 °F 65.2 °F 29.98 in SW 5.0 mph 12.0 mph 89% 0.00 in BKN
00:59 68.6 °F 65.2 °F 29.98 in SW 3.0 mph 13.0 mph 89% 0.00 in BKN
01:09 68.5 °F 65.1 °F 29.99 in SW 1.0 mph 12.0 mph 89% 0.00 in BKN
01:20 68.5 °F 65.1 °F 29.99 in SW 5.0 mph 13.0 mph 89% 0.00 in BKN
01:30 68.4 °F 65.0 °F 29.99 in SW 3.0 mph 12.0 mph 89% 0.00 in BKN
01:49 68.4 °F 65.0 °F 29.99 in South 7.0 mph 14.0 mph 89% 0.00 in BKN
01:59 68.4 °F 65.4 °F 29.99 in SSW 1.0 mph 11.0 mph 90% 0.00 in BKN
02:09 68.4 °F 65.4 °F 29.99 in SSW 7.0 mph 13.0 mph 90% 0.00 in BKN
02:19 68.3 °F 65.3 °F 29.98 in South 5.0 mph 13.0 mph 90% 0.00 in BKN
02:29 68.1 °F 65.1 °F 29.98 in SW 2.0 mph 12.0 mph 90% 0.00 in BKN
02:39 68.1 °F 65.1 °F 29.97 in SW 3.0 mph 13.0 mph 90% 0.00 in BKN
02:49 68.0 °F 65.3 °F 29.96 in SSW 3.0 mph 10.0 mph 91% 0.00 in BKN
02:59 67.9 °F 65.2 °F 29.95 in South 5.0 mph 12.0 mph 91% 0.00 in BKN
03:09 67.8 °F 65.1 °F 29.93 in SW 1.0 mph 10.0 mph 91% 0.00 in BKN
03:20 67.8 °F 65.1 °F 29.92 in West 2.0 mph 12.0 mph 91% 0.00 in BKN
03:29 67.8 °F 65.1 °F 29.91 in SW 3.0 mph 12.0 mph 91% 0.00 in BKN
03:39 67.9 °F 65.2 °F 29.90 in SSE 2.0 mph 10.0 mph 91% 0.00 in BKN
03:50 67.8 °F 65.1 °F 29.89 in WNW 3.0 mph 10.0 mph 91% 0.00 in BKN
03:59 67.9 °F 65.1 °F 29.88 in South 5.0 mph 15.0 mph 91% 0.00 in BKN
04:09 67.9 °F 65.2 °F 29.88 in SSW 7.0 mph 15.0 mph 91% 0.00 in BKN
04:19 68.0 °F 65.0 °F 29.87 in SSW 5.0 mph 20.0 mph 90% 0.00 in BKN
04:29 68.0 °F 65.0 °F 29.86 in WSW 3.0 mph 12.0 mph 90% 0.00 in BKN
04:40 68.1 °F 65.1 °F 29.85 in SSW 5.0 mph 16.0 mph 90% 0.00 in BKN
04:49 68.3 °F 65.3 °F 29.85 in SSE 6.0 mph 15.0 mph 90% 0.00 in BKN
04:59 68.4 °F 65.3 °F 29.86 in WSW 3.0 mph 12.0 mph 90% 0.00 in BKN
05:09 68.6 °F 65.2 °F 29.87 in SW 6.0 mph 13.0 mph 89% 0.00 in BKN
05:20 68.9 °F 65.5 °F 29.89 in SW 6.0 mph 14.0 mph 89% 0.00 in BKN
05:29 69.2 °F 65.5 °F 29.89 in South 7.0 mph 15.0 mph 88% 0.00 in BKN
05:39 69.6 °F 65.2 °F 29.89 in SW 9.0 mph 21.0 mph 86% 0.00 in BKN
05:49 69.7 °F 65.7 °F 29.87 in SSW 5.0 mph 14.0 mph 87% 0.00 in BKN
05:59 69.8 °F 65.8 °F 29.85 in SW 5.0 mph 12.0 mph 87% 0.00 in BKN
06:09 70.0 °F 66.0 °F 29.85 in SW 7.0 mph 14.0 mph 87% 0.00 in BKN
06:19 70.3 °F 66.3 °F 29.84 in SW 6.0 mph 22.0 mph 87% 0.00 in BKN
06:29 70.4 °F 66.3 °F 29.85 in SSW 7.0 mph 16.0 mph 87% 0.00 in BKN
06:39 70.5 °F 66.4 °F 29.84 in SSW 6.0 mph 20.0 mph 87% 0.00 in BKN
06:50 70.6 °F 66.5 °F 29.85 in SW 3.0 mph 20.0 mph 87% 0.00 in BKN
06:59 70.7 °F 66.3 °F 29.85 in South 10.0 mph 23.0 mph 86% 0.00 in BKN
07:09 70.7 °F 66.3 °F 29.85 in SSW 6.0 mph 20.0 mph 86% 0.00 in BKN
07:19 70.7 °F 66.3 °F 29.85 in SW 6.0 mph 24.0 mph 86% 0.00 in BKN
07:30 70.6 °F 66.2 °F 29.85 in South 9.0 mph 23.0 mph 86% 0.00 in BKN
07:40 70.4 °F 66.0 °F 29.86 in SW 8.0 mph 20.0 mph 86% 0.00 in BKN
07:50 69.7 °F 66.0 °F 29.87 in SSW 7.0 mph 17.0 mph 88% 0.00 in BKN
07:59 69.0 °F 65.6 °F 29.87 in SW 5.0 mph 23.0 mph 89% 0.00 in BKN
08:09 68.7 °F 65.7 °F 29.87 in SSE 6.0 mph 14.0 mph 90% 0.00 in -RA
08:19 68.7 °F 66.0 °F 29.86 in SSW 5.0 mph 18.0 mph 91% 0.00 in -RA
08:29 68.9 °F 66.2 °F 29.86 in SW 8.0 mph 12.0 mph 91% 0.00 in -RA
08:39 69.4 °F 66.7 °F 29.86 in SSW 7.0 mph 13.0 mph 91% 0.00 in -RA
08:49 69.9 °F 66.5 °F 29.86 in SSW 6.0 mph 17.0 mph 89% 0.00 in -RA
08:59 70.2 °F 66.5 °F 29.86 in SSW 10.0 mph 20.0 mph 88% 0.00 in -RA
09:09 70.4 °F 66.7 °F 29.85 in SSW 5.0 mph 20.0 mph 88% 0.00 in -DZ
09:19 70.3 °F 66.6 °F 29.86 in SSW 5.0 mph 18.0 mph 88% 0.00 in -DZ
09:29 70.2 °F 66.5 °F 29.85 in SSE 5.0 mph 17.0 mph 88% 0.00 in -DZ
09:39 70.3 °F 66.6 °F 29.84 in South 6.0 mph 13.0 mph 88% 0.00 in -DZ
09:50 70.6 °F 66.9 °F 29.84 in SW 3.0 mph 20.0 mph 88% 0.00 in -DZ
09:59 70.9 °F 66.8 °F 29.84 in SSE 8.0 mph 13.0 mph 87% 0.00 in -DZ
10:10 71.1 °F 67.0 °F 29.84 in SW 3.0 mph 23.0 mph 87% 0.00 in BKN
10:19 71.4 °F 67.0 °F 29.84 in SSW 8.0 mph 17.0 mph 86% 0.00 in BKN
10:29 71.8 °F 67.0 °F 29.83 in WSW 5.0 mph 20.0 mph 85% 0.00 in BKN
10:39 72.2 °F 67.1 °F 29.83 in South 5.0 mph 20.0 mph 84% 0.00 in BKN
10:49 72.6 °F 67.1 °F 29.83 in South 7.0 mph 20.0 mph 83% 0.00 in BKN
10:59 73.1 °F 67.3 °F 29.82 in SW 8.0 mph 25.0 mph 82% 0.00 in BKN
11:09 73.1 °F 67.3 °F 29.83 in SW 9.0 mph 23.0 mph 82% 0.00 in BKN
11:19 73.2 °F 67.4 °F 29.83 in South 9.0 mph 26.0 mph 82% 0.00 in BKN
11:29 73.2 °F 67.4 °F 29.82 in SW 8.0 mph 21.0 mph 82% 0.00 in BKN
11:39 73.6 °F 67.4 °F 29.82 in SW 9.0 mph 20.0 mph 81% 0.00 in BKN
11:50 73.6 °F 67.4 °F 29.82 in South 9.0 mph 20.0 mph 81% 0.00 in BKN
12:09 73.2 °F 67.4 °F 29.80 in SSW 7.0 mph 18.0 mph 82% 0.00 in BKN
12:19 73.4 °F 67.2 °F 29.79 in SSW 8.0 mph 23.0 mph 81% 0.00 in BKN
12:29 74.1 °F 67.6 °F 29.79 in SSW 5.0 mph 18.0 mph 80% 0.00 in BKN
12:39 73.8 °F 67.2 °F 29.78 in South 10.0 mph 30.0 mph 80% 0.00 in BKN
12:49 73.2 °F 67.4 °F 29.78 in SW 5.0 mph 23.0 mph 82% 0.00 in BKN
12:59 72.3 °F 67.5 °F 29.78 in South 9.0 mph 23.0 mph 85% 0.00 in BKN
13:09 71.6 °F 67.5 °F 29.78 in SSW 6.0 mph 13.0 mph 87% 0.00 in
13:20 71.5 °F 67.4 °F 29.78 in South 12.0 mph 26.0 mph 87% 0.00 in BKN
13:30 70.8 °F 67.4 °F 29.77 in SSW 9.0 mph 20.0 mph 89% 0.05 in RA
13:39 69.8 °F 67.4 °F 29.78 in SSW 8.0 mph 20.0 mph 92% 0.08 in RA
13:50 69.4 °F 67.3 °F 29.77 in SSW 7.0 mph 15.0 mph 93% 0.02 in RA
13:59 69.6 °F 67.5 °F 29.78 in SSW 6.0 mph 25.0 mph 93% 0.01 in RA
14:09 69.4 °F 67.3 °F 29.77 in South 8.0 mph 23.0 mph 93% 0.02 in RA
14:19 69.4 °F 67.3 °F 29.77 in SSW 9.0 mph 22.0 mph 93% 0.01 in RA
14:29 69.3 °F 67.2 °F 29.76 in South 9.0 mph 24.0 mph 93% 0.00 in OVC
14:39 69.2 °F 67.1 °F 29.75 in SSW 7.0 mph 20.0 mph 93% 0.01 in RA
14:49 69.1 °F 67.0 °F 29.75 in SSW 6.0 mph 20.0 mph 93% 0.00 in OVC
14:59 69.2 °F 67.4 °F 29.76 in SSW 6.0 mph 25.0 mph 94% 0.00 in OVC
15:10 69.1 °F 67.0 °F 29.76 in South 5.0 mph 20.0 mph 93% 0.00 in -RA
15:19 69.1 °F 67.0 °F 29.76 in SW 9.0 mph 21.0 mph 93% 0.00 in -RA
15:29 68.9 °F 66.8 °F 29.77 in SSW 7.0 mph 18.0 mph 93% 0.04 in -RA
15:40 68.5 °F 66.7 °F 29.77 in SSW 3.0 mph 16.0 mph 94% 0.03 in -RA
15:50 68.1 °F 66.3 °F 29.77 in SSW 7.0 mph 20.0 mph 94% 0.02 in -RA
16:00 67.9 °F 66.1 °F 29.78 in SSW 3.0 mph 16.0 mph 94% 0.01 in -RA
16:09 67.5 °F 66.1 °F 29.78 in SSW 8.0 mph 23.0 mph 95% 0.00 in OVC
16:19 67.4 °F 65.9 °F 29.78 in South 6.0 mph 18.0 mph 95% 0.01 in RA
16:29 67.3 °F 65.8 °F 29.79 in SSW 5.0 mph 17.0 mph 95% 0.04 in RA
16:39 67.2 °F 65.7 °F 29.78 in SSW 5.0 mph 17.0 mph 95% 0.05 in RA
16:49 67.1 °F 65.6 °F 29.79 in SSW 7.0 mph 17.0 mph 95% 0.00 in OVC
17:00 67.1 °F 65.6 °F 29.79 in SW 9.0 mph 21.0 mph 95% 0.00 in OVC
17:10 67.0 °F 65.5 °F 29.78 in South 3.0 mph 21.0 mph 95% 0.00 in OVC
17:19 67.0 °F 65.8 °F 29.78 in SSW 7.0 mph 14.0 mph 96% 0.00 in OVC
17:29 67.1 °F 65.6 °F 29.78 in SSW 6.0 mph 18.0 mph 95% 0.00 in OVC
17:39 67.1 °F 65.6 °F 29.78 in SW 2.0 mph 12.0 mph 95% 0.00 in OVC
17:49 67.1 °F 65.6 °F 29.78 in South 8.0 mph 14.0 mph 95% 0.00 in OVC
17:59 67.1 °F 65.6 °F 29.78 in South 9.0 mph 15.0 mph 95% 0.00 in OVC
18:09 67.1 °F 65.6 °F 29.77 in SSW 5.0 mph 12.0 mph 95% 0.00 in OVC
18:19 67.1 °F 65.6 °F 29.77 in South 3.0 mph 12.0 mph 95% 0.00 in OVC
18:30 67.1 °F 65.6 °F 29.78 in SSW 3.0 mph 12.0 mph 95% 0.00 in OVC
18:39 67.1 °F 65.6 °F 29.79 in SSW 3.0 mph 15.0 mph 95% 0.00 in OVC
18:49 67.2 °F 65.7 °F 29.79 in SSW 6.0 mph 13.0 mph 95% 0.00 in OVC
18:59 67.2 °F 65.7 °F 29.78 in SSW 3.0 mph 12.0 mph 95% 0.00 in OVC
19:09 67.2 °F 65.8 °F 29.79 in South 2.0 mph 12.0 mph 95% 0.00 in -RA
19:19 67.3 °F 65.8 °F 29.79 in South 2.0 mph 15.0 mph 95% 0.00 in -RA
19:29 67.3 °F 65.8 °F 29.79 in SSW 1.0 mph 10.0 mph 95% 0.00 in -RA
19:39 67.2 °F 65.8 °F 29.78 in SW 3.0 mph 14.0 mph 95% 0.01 in -RA
19:49 67.2 °F 65.7 °F 29.78 in SSE 1.0 mph 10.0 mph 95% 0.00 in -RA
19:59 67.0 °F 65.5 °F 29.77 in South 2.0 mph 10.0 mph 95% 0.00 in -RA
20:09 66.9 °F 65.4 °F 29.77 in SSW 2.0 mph 10.0 mph 95% 0.01 in -RA
20:20 66.7 °F 65.2 °F 29.77 in SSW 1.0 mph 9.0 mph 95% 0.00 in -RA
20:29 66.5 °F 65.3 °F 29.77 in SSW 1.0 mph 7.0 mph 96% 0.00 in -RA
20:39 66.4 °F 65.2 °F 29.77 in SW 2.0 mph 12.0 mph 96% 0.00 in -RA
20:49 66.3 °F 65.1 °F 29.77 in Calm   9.0 mph 96% 0.00 in -RA
20:59 66.1 °F 64.9 °F 29.77 in South 2.0 mph 5.0 mph 96% 0.00 in -RA
21:09 66.0 °F 64.8 °F 29.78 in SW 1.0 mph 7.0 mph 96% 0.00 in -RA
21:20 66.0 °F 64.8 °F 29.78 in SW 2.0 mph 8.0 mph 96% 0.00 in -RA
21:29 66.0 °F 64.8 °F 29.78 in South 2.0 mph 7.0 mph 96% 0.00 in -RA
21:39 66.0 °F 64.8 °F 29.78 in Calm   6.0 mph 96% 0.00 in -RA
21:49 65.9 °F 64.7 °F 29.78 in South 2.0 mph 6.0 mph 96% 0.00 in -RA
21:59 65.9 °F 64.7 °F 29.77 in South 3.0 mph 7.0 mph 96% 0.00 in -RA
22:09 65.8 °F 64.6 °F 29.77 in SSW 2.0 mph 7.0 mph 96% 0.00 in OVC
22:19 65.8 °F 64.9 °F 29.77 in South 3.0 mph 8.0 mph 97% 0.00 in OVC
22:29 65.8 °F 64.9 °F 29.76 in South 1.0 mph 7.0 mph 97% 0.00 in OVC
22:39 65.6 °F 64.7 °F 29.76 in SSW 2.0 mph 6.0 mph 97% 0.00 in OVC
22:49 65.5 °F 64.6 °F 29.75 in South 1.0 mph 5.0 mph 97% 0.00 in OVC
23:00 65.4 °F 64.5 °F 29.76 in Calm   5.0 mph 97% 0.00 in OVC
23:10 65.3 °F 64.5 °F 29.75 in South 2.0 mph 6.0 mph 97% 0.00 in OVC
23:19 65.4 °F 64.5 °F 29.75 in Calm   6.0 mph 97% 0.00 in OVC
23:29 65.4 °F 64.5 °F 29.75 in SSW 1.0 mph 4.0 mph 97% 0.00 in OVC
23:39 65.3 °F 64.4 °F 29.76 in Calm   4.0 mph 97% 0.00 in OVC
23:49 65.3 °F 64.4 °F 29.75 in Calm   3.0 mph 97% 0.00 in OVC
23:59 65.4 °F 64.5 °F 29.75 in South 1.0 mph 4.0 mph 97% 0.00 in RA
TarryTown NY Weather
Compliments of Weather Underground - 1.75 mb